sensor_id;sensor_type;location;lat;lon;timestamp;P1;durP1;ratioP1;P2;durP2;ratioP2
27225;SDS011;14732;51.074;3.788;2022-09-30T00:00:18;13.95;;;8.75;;
27225;SDS011;14732;51.074;3.788;2022-09-30T00:02:44;12.75;;;8.68;;
27225;SDS011;14732;51.074;3.788;2022-09-30T00:05:10;14.40;;;8.48;;
27225;SDS011;14732;51.074;3.788;2022-09-30T00:07:36;12.52;;;8.73;;
27225;SDS011;14732;51.074;3.788;2022-09-30T00:10:02;14.32;;;9.57;;
27225;SDS011;14732;51.074;3.788;2022-09-30T00:12:28;14.38;;;9.27;;
27225;SDS011;14732;51.074;3.788;2022-09-30T00:14:53;15.88;;;9.00;;
27225;SDS011;14732;51.074;3.788;2022-09-30T00:17:19;14.60;;;9.25;;
27225;SDS011;14732;51.074;3.788;2022-09-30T00:19:45;15.70;;;9.02;;
27225;SDS011;14732;51.074;3.788;2022-09-30T00:22:11;16.70;;;8.50;;
27225;SDS011;14732;51.074;3.788;2022-09-30T00:24:36;11.23;;;7.78;;
27225;SDS011;14732;51.074;3.788;2022-09-30T00:27:02;14.50;;;7.95;;
27225;SDS011;14732;51.074;3.788;2022-09-30T00:29:28;13.43;;;7.85;;
27225;SDS011;14732;51.074;3.788;2022-09-30T00:31:53;17.42;;;9.05;;
27225;SDS011;14732;51.074;3.788;2022-09-30T00:34:19;11.30;;;8.35;;
27225;SDS011;14732;51.074;3.788;2022-09-30T00:36:52;15.07;;;9.13;;
27225;SDS011;14732;51.074;3.788;2022-09-30T00:39:26;13.27;;;9.50;;
27225;SDS011;14732;51.074;3.788;2022-09-30T00:41:55;16.77;;;8.55;;
27225;SDS011;14732;51.074;3.788;2022-09-30T00:49:45;11.35;;;8.45;;
27225;SDS011;14732;51.074;3.788;2022-09-30T00:52:11;14.25;;;8.43;;
27225;SDS011;14732;51.074;3.788;2022-09-30T00:54:37;13.73;;;8.90;;
27225;SDS011;14732;51.074;3.788;2022-09-30T00:57:03;15.35;;;9.68;;
27225;SDS011;14732;51.074;3.788;2022-09-30T00:59:40;15.57;;;10.73;;
27225;SDS011;14732;51.074;3.788;2022-09-30T01:02:11;15.15;;;10.15;;
27225;SDS011;14732;51.074;3.788;2022-09-30T01:04:38;13.18;;;9.40;;
27225;SDS011;14732;51.074;3.788;2022-09-30T01:07:07;13.25;;;9.77;;
27225;SDS011;14732;51.074;3.788;2022-09-30T01:09:34;14.15;;;9.95;;
27225;SDS011;14732;51.074;3.788;2022-09-30T01:12:03;19.05;;;9.85;;
27225;SDS011;14732;51.074;3.788;2022-09-30T01:14:34;15.75;;;11.50;;
27225;SDS011;14732;51.074;3.788;2022-09-30T01:19:45;14.15;;;10.25;;
27225;SDS011;14732;51.074;3.788;2022-09-30T01:30:44;15.45;;;10.50;;
27225;SDS011;14732;51.074;3.788;2022-09-30T01:35:45;14.98;;;10.63;;
27225;SDS011;14732;51.074;3.788;2022-09-30T01:41:03;21.38;;;10.40;;
27225;SDS011;14732;51.074;3.788;2022-09-30T01:43:36;12.32;;;9.45;;
27225;SDS011;14732;51.074;3.788;2022-09-30T01:49:49;15.57;;;9.73;;
27225;SDS011;14732;51.074;3.788;2022-09-30T01:57:41;12.52;;;9.13;;
27225;SDS011;14732;51.074;3.788;2022-09-30T02:00:14;14.13;;;9.35;;
27225;SDS011;14732;51.074;3.788;2022-09-30T02:02:57;12.60;;;9.52;;
27225;SDS011;14732;51.074;3.788;2022-09-30T02:05:48;15.27;;;9.90;;
27225;SDS011;14732;51.074;3.788;2022-09-30T02:08:30;19.10;;;9.98;;
27225;SDS011;14732;51.074;3.788;2022-09-30T02:11:31;14.15;;;9.52;;
27225;SDS011;14732;51.074;3.788;2022-09-30T02:14:04;14.05;;;9.73;;
27225;SDS011;14732;51.074;3.788;2022-09-30T02:17:03;16.35;;;10.93;;
27225;SDS011;14732;51.074;3.788;2022-09-30T02:19:36;15.55;;;10.82;;
27225;SDS011;14732;51.074;3.788;2022-09-30T02:22:30;15.90;;;10.85;;
27225;SDS011;14732;51.074;3.788;2022-09-30T02:25:18;17.85;;;10.90;;
27225;SDS011;14732;51.074;3.788;2022-09-30T02:27:52;13.82;;;10.60;;
27225;SDS011;14732;51.074;3.788;2022-09-30T02:30:21;14.73;;;11.27;;
27225;SDS011;14732;51.074;3.788;2022-09-30T02:32:51;16.90;;;11.25;;
27225;SDS011;14732;51.074;3.788;2022-09-30T02:35:34;18.00;;;11.65;;
27225;SDS011;14732;51.074;3.788;2022-09-30T02:38:10;21.45;;;11.57;;
27225;SDS011;14732;51.074;3.788;2022-09-30T02:43:12;16.40;;;12.25;;
27225;SDS011;14732;51.074;3.788;2022-09-30T02:45:45;13.95;;;10.73;;
27225;SDS011;14732;51.074;3.788;2022-09-30T02:50:51;15.40;;;11.52;;
27225;SDS011;14732;51.074;3.788;2022-09-30T02:58:55;15.90;;;11.68;;
27225;SDS011;14732;51.074;3.788;2022-09-30T03:01:21;18.15;;;11.18;;
27225;SDS011;14732;51.074;3.788;2022-09-30T03:03:50;15.80;;;11.82;;
27225;SDS011;14732;51.074;3.788;2022-09-30T03:06:21;17.70;;;12.48;;
27225;SDS011;14732;51.074;3.788;2022-09-30T03:08:47;18.58;;;11.75;;
27225;SDS011;14732;51.074;3.788;2022-09-30T03:11:17;17.58;;;12.02;;
27225;SDS011;14732;51.074;3.788;2022-09-30T03:22:22;17.67;;;13.60;;
27225;SDS011;14732;51.074;3.788;2022-09-30T03:25:11;21.27;;;13.55;;
27225;SDS011;14732;51.074;3.788;2022-09-30T03:30:12;17.88;;;12.20;;
27225;SDS011;14732;51.074;3.788;2022-09-30T03:32:46;19.20;;;14.13;;
27225;SDS011;14732;51.074;3.788;2022-09-30T03:35:29;18.42;;;13.07;;
27225;SDS011;14732;51.074;3.788;2022-09-30T03:38:31;20.85;;;14.05;;
27225;SDS011;14732;51.074;3.788;2022-09-30T03:41:09;23.98;;;14.90;;
27225;SDS011;14732;51.074;3.788;2022-09-30T03:46:21;19.38;;;14.52;;
27225;SDS011;14732;51.074;3.788;2022-09-30T03:48:51;19.25;;;14.38;;
27225;SDS011;14732;51.074;3.788;2022-09-30T03:51:19;22.77;;;15.38;;
27225;SDS011;14732;51.074;3.788;2022-09-30T03:53:48;23.50;;;15.00;;
27225;SDS011;14732;51.074;3.788;2022-09-30T03:56:15;22.27;;;15.20;;
27225;SDS011;14732;51.074;3.788;2022-09-30T03:58:55;21.52;;;15.13;;
27225;SDS011;14732;51.074;3.788;2022-09-30T04:01:22;22.55;;;15.38;;
27225;SDS011;14732;51.074;3.788;2022-09-30T04:03:51;20.90;;;15.27;;
27225;SDS011;14732;51.074;3.788;2022-09-30T04:06:18;20.20;;;13.90;;
27225;SDS011;14732;51.074;3.788;2022-09-30T04:08:48;21.90;;;14.77;;
27225;SDS011;14732;51.074;3.788;2022-09-30T04:11:14;20.23;;;14.65;;
27225;SDS011;14732;51.074;3.788;2022-09-30T04:13:41;24.10;;;15.82;;
27225;SDS011;14732;51.074;3.788;2022-09-30T04:16:07;22.52;;;14.70;;
27225;SDS011;14732;51.074;3.788;2022-09-30T04:18:36;20.63;;;15.63;;
27225;SDS011;14732;51.074;3.788;2022-09-30T04:21:06;20.42;;;14.38;;
27225;SDS011;14732;51.074;3.788;2022-09-30T04:23:36;26.17;;;15.15;;
27225;SDS011;14732;51.074;3.788;2022-09-30T04:26:04;22.48;;;14.65;;
27225;SDS011;14732;51.074;3.788;2022-09-30T04:28:34;21.70;;;14.95;;
27225;SDS011;14732;51.074;3.788;2022-09-30T04:31:01;21.67;;;14.93;;
27225;SDS011;14732;51.074;3.788;2022-09-30T04:33:28;21.73;;;14.75;;
27225;SDS011;14732;51.074;3.788;2022-09-30T04:35:54;20.85;;;14.55;;
27225;SDS011;14732;51.074;3.788;2022-09-30T04:38:21;20.05;;;15.38;;
27225;SDS011;14732;51.074;3.788;2022-09-30T04:40:48;18.75;;;13.73;;
27225;SDS011;14732;51.074;3.788;2022-09-30T04:43:21;18.92;;;14.23;;
27225;SDS011;14732;51.074;3.788;2022-09-30T04:45:48;18.92;;;13.75;;
27225;SDS011;14732;51.074;3.788;2022-09-30T04:48:15;21.30;;;15.00;;
27225;SDS011;14732;51.074;3.788;2022-09-30T04:50:41;21.27;;;14.00;;
27225;SDS011;14732;51.074;3.788;2022-09-30T04:53:08;24.45;;;16.38;;
27225;SDS011;14732;51.074;3.788;2022-09-30T04:55:35;23.00;;;14.40;;
27225;SDS011;14732;51.074;3.788;2022-09-30T04:58:01;21.30;;;14.63;;
27225;SDS011;14732;51.074;3.788;2022-09-30T05:00:26;20.92;;;14.32;;
27225;SDS011;14732;51.074;3.788;2022-09-30T05:02:52;19.90;;;14.60;;
27225;SDS011;14732;51.074;3.788;2022-09-30T05:05:18;17.60;;;13.48;;
27225;SDS011;14732;51.074;3.788;2022-09-30T05:07:44;23.77;;;14.75;;
27225;SDS011;14732;51.074;3.788;2022-09-30T05:10:10;21.65;;;14.43;;
27225;SDS011;14732;51.074;3.788;2022-09-30T05:12:37;20.65;;;14.93;;
27225;SDS011;14732;51.074;3.788;2022-09-30T05:15:05;27.52;;;15.40;;
27225;SDS011;14732;51.074;3.788;2022-09-30T05:17:31;24.10;;;14.98;;
27225;SDS011;14732;51.074;3.788;2022-09-30T05:19:57;20.58;;;14.57;;
27225;SDS011;14732;51.074;3.788;2022-09-30T05:22:23;22.42;;;14.50;;
27225;SDS011;14732;51.074;3.788;2022-09-30T05:24:50;23.23;;;14.85;;
27225;SDS011;14732;51.074;3.788;2022-09-30T05:27:16;22.33;;;14.07;;
27225;SDS011;14732;51.074;3.788;2022-09-30T05:29:46;21.85;;;15.18;;
27225;SDS011;14732;51.074;3.788;2022-09-30T05:32:11;22.13;;;14.95;;
27225;SDS011;14732;51.074;3.788;2022-09-30T05:34:37;24.80;;;15.32;;
27225;SDS011;14732;51.074;3.788;2022-09-30T05:37:03;22.00;;;15.18;;
27225;SDS011;14732;51.074;3.788;2022-09-30T05:39:29;22.95;;;15.20;;
27225;SDS011;14732;51.074;3.788;2022-09-30T05:41:58;21.27;;;15.25;;
27225;SDS011;14732;51.074;3.788;2022-09-30T05:44:24;26.40;;;16.00;;
27225;SDS011;14732;51.074;3.788;2022-09-30T05:46:50;25.52;;;15.98;;
27225;SDS011;14732;51.074;3.788;2022-09-30T05:49:15;23.05;;;15.25;;
27225;SDS011;14732;51.074;3.788;2022-09-30T05:51:41;24.67;;;16.77;;
27225;SDS011;14732;51.074;3.788;2022-09-30T05:54:08;30.40;;;17.15;;
27225;SDS011;14732;51.074;3.788;2022-09-30T05:56:34;26.08;;;16.83;;
27225;SDS011;14732;51.074;3.788;2022-09-30T05:59:02;25.10;;;17.30;;
27225;SDS011;14732;51.074;3.788;2022-09-30T06:01:30;25.55;;;17.35;;
27225;SDS011;14732;51.074;3.788;2022-09-30T06:03:56;31.83;;;16.52;;
27225;SDS011;14732;51.074;3.788;2022-09-30T06:06:22;25.10;;;16.65;;
27225;SDS011;14732;51.074;3.788;2022-09-30T06:08:48;26.05;;;17.10;;
27225;SDS011;14732;51.074;3.788;2022-09-30T06:11:16;23.58;;;16.17;;
27225;SDS011;14732;51.074;3.788;2022-09-30T06:13:43;24.97;;;16.83;;
27225;SDS011;14732;51.074;3.788;2022-09-30T06:16:11;24.13;;;17.33;;
27225;SDS011;14732;51.074;3.788;2022-09-30T06:18:37;25.85;;;17.50;;
27225;SDS011;14732;51.074;3.788;2022-09-30T06:21:05;24.65;;;16.25;;
27225;SDS011;14732;51.074;3.788;2022-09-30T06:23:33;23.23;;;15.52;;
27225;SDS011;14732;51.074;3.788;2022-09-30T06:25:59;25.15;;;16.48;;
27225;SDS011;14732;51.074;3.788;2022-09-30T06:28:26;26.67;;;16.67;;
27225;SDS011;14732;51.074;3.788;2022-09-30T06:30:52;28.42;;;16.33;;
27225;SDS011;14732;51.074;3.788;2022-09-30T06:33:18;21.33;;;13.98;;
27225;SDS011;14732;51.074;3.788;2022-09-30T06:35:44;22.50;;;15.45;;
27225;SDS011;14732;51.074;3.788;2022-09-30T06:38:11;21.60;;;14.20;;
27225;SDS011;14732;51.074;3.788;2022-09-30T06:40:40;27.10;;;17.10;;
27225;SDS011;14732;51.074;3.788;2022-09-30T06:43:07;25.45;;;15.13;;
27225;SDS011;14732;51.074;3.788;2022-09-30T06:45:34;29.17;;;17.40;;
27225;SDS011;14732;51.074;3.788;2022-09-30T06:48:00;30.48;;;18.58;;
27225;SDS011;14732;51.074;3.788;2022-09-30T06:50:28;29.30;;;18.77;;
27225;SDS011;14732;51.074;3.788;2022-09-30T06:53:01;31.88;;;19.30;;
27225;SDS011;14732;51.074;3.788;2022-09-30T06:55:30;30.25;;;19.55;;
27225;SDS011;14732;51.074;3.788;2022-09-30T06:57:56;33.00;;;19.27;;
27225;SDS011;14732;51.074;3.788;2022-09-30T07:00:22;32.53;;;19.23;;
27225;SDS011;14732;51.074;3.788;2022-09-30T07:02:49;31.38;;;19.20;;
27225;SDS011;14732;51.074;3.788;2022-09-30T07:05:17;30.67;;;19.67;;
27225;SDS011;14732;51.074;3.788;2022-09-30T07:07:43;26.23;;;17.60;;
27225;SDS011;14732;51.074;3.788;2022-09-30T07:10:09;29.80;;;17.83;;
27225;SDS011;14732;51.074;3.788;2022-09-30T07:12:35;23.05;;;16.88;;
27225;SDS011;14732;51.074;3.788;2022-09-30T07:15:04;30.35;;;16.75;;
27225;SDS011;14732;51.074;3.788;2022-09-30T07:17:30;26.02;;;15.82;;
27225;SDS011;14732;51.074;3.788;2022-09-30T07:19:56;27.08;;;15.85;;
27225;SDS011;14732;51.074;3.788;2022-09-30T07:22:22;21.52;;;16.23;;
27225;SDS011;14732;51.074;3.788;2022-09-30T07:24:51;24.63;;;16.03;;
27225;SDS011;14732;51.074;3.788;2022-09-30T07:27:17;23.58;;;14.95;;
27225;SDS011;14732;51.074;3.788;2022-09-30T07:29:43;20.45;;;14.13;;
27225;SDS011;14732;51.074;3.788;2022-09-30T07:32:09;19.73;;;14.23;;
27225;SDS011;14732;51.074;3.788;2022-09-30T07:34:36;18.40;;;13.10;;
27225;SDS011;14732;51.074;3.788;2022-09-30T07:37:07;18.50;;;13.02;;
27225;SDS011;14732;51.074;3.788;2022-09-30T07:39:35;18.98;;;12.40;;
27225;SDS011;14732;51.074;3.788;2022-09-30T07:42:01;17.67;;;12.10;;
27225;SDS011;14732;51.074;3.788;2022-09-30T07:44:28;17.88;;;11.93;;
27225;SDS011;14732;51.074;3.788;2022-09-30T07:46:54;17.20;;;11.45;;
27225;SDS011;14732;51.074;3.788;2022-09-30T07:49:20;14.77;;;10.65;;
27225;SDS011;14732;51.074;3.788;2022-09-30T07:51:50;20.75;;;11.50;;
27225;SDS011;14732;51.074;3.788;2022-09-30T07:54:21;13.40;;;10.30;;
27225;SDS011;14732;51.074;3.788;2022-09-30T07:56:49;15.20;;;10.30;;
27225;SDS011;14732;51.074;3.788;2022-09-30T07:59:16;17.48;;;9.88;;
27225;SDS011;14732;51.074;3.788;2022-09-30T08:01:42;15.98;;;9.38;;
27225;SDS011;14732;51.074;3.788;2022-09-30T08:04:09;16.23;;;9.68;;
27225;SDS011;14732;51.074;3.788;2022-09-30T08:06:37;14.55;;;8.85;;
27225;SDS011;14732;51.074;3.788;2022-09-30T08:09:04;16.35;;;10.05;;
27225;SDS011;14732;51.074;3.788;2022-09-30T08:11:34;14.23;;;9.75;;
27225;SDS011;14732;51.074;3.788;2022-09-30T08:14:01;12.00;;;8.50;;
27225;SDS011;14732;51.074;3.788;2022-09-30T08:16:26;14.02;;;9.00;;
27225;SDS011;14732;51.074;3.788;2022-09-30T08:18:53;11.65;;;8.10;;
27225;SDS011;14732;51.074;3.788;2022-09-30T08:21:23;9.80;;;7.15;;
27225;SDS011;14732;51.074;3.788;2022-09-30T08:23:49;14.65;;;8.20;;
27225;SDS011;14732;51.074;3.788;2022-09-30T08:26:15;10.90;;;7.60;;
27225;SDS011;14732;51.074;3.788;2022-09-30T08:28:41;14.57;;;8.07;;
27225;SDS011;14732;51.074;3.788;2022-09-30T08:31:11;14.68;;;8.50;;
27225;SDS011;14732;51.074;3.788;2022-09-30T08:33:37;12.18;;;7.72;;
27225;SDS011;14732;51.074;3.788;2022-09-30T08:36:04;12.52;;;8.05;;
27225;SDS011;14732;51.074;3.788;2022-09-30T08:38:32;14.07;;;7.80;;
27225;SDS011;14732;51.074;3.788;2022-09-30T08:41:04;10.98;;;7.53;;
27225;SDS011;14732;51.074;3.788;2022-09-30T08:49:07;13.68;;;6.70;;
27225;SDS011;14732;51.074;3.788;2022-09-30T08:51:43;10.52;;;6.32;;
27225;SDS011;14732;51.074;3.788;2022-09-30T08:54:12;11.32;;;6.35;;
27225;SDS011;14732;51.074;3.788;2022-09-30T08:59:13;6.50;;;4.40;;
27225;SDS011;14732;51.074;3.788;2022-09-30T09:02:12;8.35;;;5.25;;
27225;SDS011;14732;51.074;3.788;2022-09-30T09:05:05;8.38;;;4.57;;
27225;SDS011;14732;51.074;3.788;2022-09-30T09:10:03;10.70;;;4.60;;
27225;SDS011;14732;51.074;3.788;2022-09-30T09:12:43;6.70;;;5.07;;
27225;SDS011;14732;51.074;3.788;2022-09-30T09:20:35;10.02;;;5.50;;
27225;SDS011;14732;51.074;3.788;2022-09-30T09:23:08;7.07;;;5.07;;
27225;SDS011;14732;51.074;3.788;2022-09-30T09:25:36;8.52;;;4.97;;
27225;SDS011;14732;51.074;3.788;2022-09-30T09:28:02;8.60;;;5.53;;
27225;SDS011;14732;51.074;3.788;2022-09-30T09:30:40;6.53;;;5.63;;
27225;SDS011;14732;51.074;3.788;2022-09-30T09:33:21;7.80;;;5.40;;
27225;SDS011;14732;51.074;3.788;2022-09-30T09:35:58;12.00;;;6.00;;
27225;SDS011;14732;51.074;3.788;2022-09-30T09:57:14;7.43;;;6.03;;
27225;SDS011;14732;51.074;3.788;2022-09-30T10:00:02;11.13;;;5.80;;
27225;SDS011;14732;51.074;3.788;2022-09-30T10:05:36;8.85;;;5.43;;
27225;SDS011;14732;51.074;3.788;2022-09-30T10:15:43;6.38;;;3.70;;
27225;SDS011;14732;51.074;3.788;2022-09-30T10:18:17;5.90;;;3.53;;
27225;SDS011;14732;51.074;3.788;2022-09-30T10:20:55;4.75;;;3.60;;
27225;SDS011;14732;51.074;3.788;2022-09-30T10:23:31;6.25;;;3.83;;
27225;SDS011;14732;51.074;3.788;2022-09-30T10:26:03;5.50;;;3.67;;
27225;SDS011;14732;51.074;3.788;2022-09-30T10:28:48;4.65;;;3.90;;
27225;SDS011;14732;51.074;3.788;2022-09-30T10:36:38;5.65;;;4.18;;
27225;SDS011;14732;51.074;3.788;2022-09-30T10:39:29;6.07;;;4.50;;
27225;SDS011;14732;51.074;3.788;2022-09-30T10:42:23;8.23;;;4.47;;
27225;SDS011;14732;51.074;3.788;2022-09-30T10:44:56;7.45;;;5.63;;
27225;SDS011;14732;51.074;3.788;2022-09-30T10:47:30;8.23;;;5.47;;
27225;SDS011;14732;51.074;3.788;2022-09-30T10:50:02;6.53;;;5.28;;
27225;SDS011;14732;51.074;3.788;2022-09-30T10:52:37;7.63;;;5.40;;
27225;SDS011;14732;51.074;3.788;2022-09-30T10:57:50;5.63;;;4.90;;
27225;SDS011;14732;51.074;3.788;2022-09-30T11:00:18;9.18;;;5.28;;
27225;SDS011;14732;51.074;3.788;2022-09-30T11:02:57;7.25;;;5.82;;
27225;SDS011;14732;51.074;3.788;2022-09-30T11:05:30;8.10;;;5.88;;
27225;SDS011;14732;51.074;3.788;2022-09-30T11:08:08;7.07;;;5.40;;
27225;SDS011;14732;51.074;3.788;2022-09-30T11:13:36;7.68;;;5.32;;
27225;SDS011;14732;51.074;3.788;2022-09-30T11:16:11;5.85;;;5.25;;
27225;SDS011;14732;51.074;3.788;2022-09-30T11:18:50;8.70;;;5.95;;
27225;SDS011;14732;51.074;3.788;2022-09-30T11:21:27;8.75;;;5.80;;
27225;SDS011;14732;51.074;3.788;2022-09-30T11:24:13;10.35;;;6.10;;
27225;SDS011;14732;51.074;3.788;2022-09-30T11:32:49;9.65;;;5.50;;
27225;SDS011;14732;51.074;3.788;2022-09-30T11:41:50;8.82;;;4.85;;
27225;SDS011;14732;51.074;3.788;2022-09-30T11:44:38;4.32;;;3.90;;
27225;SDS011;14732;51.074;3.788;2022-09-30T11:47:13;7.38;;;3.90;;
27225;SDS011;14732;51.074;3.788;2022-09-30T11:56:11;4.40;;;3.50;;
27225;SDS011;14732;51.074;3.788;2022-09-30T11:58:31;3.75;;;3.40;;
27225;SDS011;14732;51.074;3.788;2022-09-30T12:01:14;3.67;;;3.08;;
27225;SDS011;14732;51.074;3.788;2022-09-30T12:04:08;6.20;;;3.35;;
27225;SDS011;14732;51.074;3.788;2022-09-30T12:06:47;6.13;;;3.13;;
27225;SDS011;14732;51.074;3.788;2022-09-30T12:11:55;6.00;;;3.03;;
27225;SDS011;14732;51.074;3.788;2022-09-30T12:14:39;6.68;;;2.92;;
27225;SDS011;14732;51.074;3.788;2022-09-30T12:17:28;5.38;;;2.92;;
27225;SDS011;14732;51.074;3.788;2022-09-30T12:20:09;4.00;;;2.67;;
27225;SDS011;14732;51.074;3.788;2022-09-30T12:22:46;9.35;;;2.33;;
27225;SDS011;14732;51.074;3.788;2022-09-30T12:25:23;3.03;;;2.63;;
27225;SDS011;14732;51.074;3.788;2022-09-30T12:28:03;4.00;;;3.05;;
27225;SDS011;14732;51.074;3.788;2022-09-30T12:31:18;4.95;;;3.30;;
27225;SDS011;14732;51.074;3.788;2022-09-30T12:37:14;4.13;;;3.13;;
27225;SDS011;14732;51.074;3.788;2022-09-30T12:42:51;7.00;;;3.10;;
27225;SDS011;14732;51.074;3.788;2022-09-30T12:48:10;3.83;;;3.08;;
27225;SDS011;14732;51.074;3.788;2022-09-30T12:50:47;5.70;;;3.47;;
27225;SDS011;14732;51.074;3.788;2022-09-30T12:55:54;4.93;;;3.00;;
27225;SDS011;14732;51.074;3.788;2022-09-30T12:58:40;2.83;;;2.45;;
27225;SDS011;14732;51.074;3.788;2022-09-30T13:03:44;8.32;;;2.63;;
27225;SDS011;14732;51.074;3.788;2022-09-30T13:06:14;6.60;;;2.65;;
27225;SDS011;14732;51.074;3.788;2022-09-30T13:09:23;6.28;;;2.65;;
27225;SDS011;14732;51.074;3.788;2022-09-30T13:19:31;8.00;;;2.80;;
27225;SDS011;14732;51.074;3.788;2022-09-30T13:27:42;3.20;;;2.50;;
27225;SDS011;14732;51.074;3.788;2022-09-30T13:33:03;2.30;;;2.10;;
27225;SDS011;14732;51.074;3.788;2022-09-30T13:35:49;11.23;;;2.78;;
27225;SDS011;14732;51.074;3.788;2022-09-30T13:38:17;3.38;;;2.35;;
27225;SDS011;14732;51.074;3.788;2022-09-30T13:43:41;4.38;;;1.90;;
27225;SDS011;14732;51.074;3.788;2022-09-30T13:51:36;2.00;;;1.80;;
27225;SDS011;14732;51.074;3.788;2022-09-30T13:54:05;6.72;;;1.83;;
27225;SDS011;14732;51.074;3.788;2022-09-30T13:56:37;3.10;;;1.77;;
27225;SDS011;14732;51.074;3.788;2022-09-30T14:07:10;2.30;;;1.40;;
27225;SDS011;14732;51.074;3.788;2022-09-30T14:12:50;2.92;;;1.35;;
27225;SDS011;14732;51.074;3.788;2022-09-30T14:15:40;1.70;;;1.23;;
27225;SDS011;14732;51.074;3.788;2022-09-30T14:19:08;2.22;;;1.55;;
27225;SDS011;14732;51.074;3.788;2022-09-30T14:24:12;2.17;;;1.95;;
27225;SDS011;14732;51.074;3.788;2022-09-30T14:31:58;2.92;;;1.95;;
27225;SDS011;14732;51.074;3.788;2022-09-30T14:34:24;3.13;;;1.95;;
27225;SDS011;14732;51.074;3.788;2022-09-30T14:36:53;4.45;;;2.33;;
27225;SDS011;14732;51.074;3.788;2022-09-30T14:39:20;4.07;;;2.20;;
27225;SDS011;14732;51.074;3.788;2022-09-30T14:41:57;2.70;;;2.20;;
27225;SDS011;14732;51.074;3.788;2022-09-30T14:44:26;2.00;;;1.80;;
27225;SDS011;14732;51.074;3.788;2022-09-30T14:46:58;2.55;;;2.00;;
27225;SDS011;14732;51.074;3.788;2022-09-30T14:49:26;4.55;;;1.80;;
27225;SDS011;14732;51.074;3.788;2022-09-30T14:51:58;1.95;;;1.60;;
27225;SDS011;14732;51.074;3.788;2022-09-30T14:54:27;6.15;;;1.52;;
27225;SDS011;14732;51.074;3.788;2022-09-30T14:56:54;4.93;;;1.67;;
27225;SDS011;14732;51.074;3.788;2022-09-30T14:59:21;3.35;;;1.50;;
27225;SDS011;14732;51.074;3.788;2022-09-30T15:01:51;2.85;;;1.50;;
27225;SDS011;14732;51.074;3.788;2022-09-30T15:04:26;6.28;;;1.70;;
27225;SDS011;14732;51.074;3.788;2022-09-30T15:06:55;3.38;;;1.80;;
27225;SDS011;14732;51.074;3.788;2022-09-30T15:09:31;3.17;;;1.50;;
27225;SDS011;14732;51.074;3.788;2022-09-30T15:12:18;5.07;;;1.65;;
27225;SDS011;14732;51.074;3.788;2022-09-30T15:14:49;2.67;;;1.50;;
27225;SDS011;14732;51.074;3.788;2022-09-30T15:17:20;3.30;;;1.38;;
27225;SDS011;14732;51.074;3.788;2022-09-30T15:19:48;3.60;;;1.63;;
27225;SDS011;14732;51.074;3.788;2022-09-30T15:22:15;1.83;;;1.30;;
27225;SDS011;14732;51.074;3.788;2022-09-30T15:24:42;1.42;;;1.27;;
27225;SDS011;14732;51.074;3.788;2022-09-30T15:30:00;5.00;;;1.30;;
27225;SDS011;14732;51.074;3.788;2022-09-30T15:32:31;3.05;;;1.40;;
27225;SDS011;14732;51.074;3.788;2022-09-30T15:35:06;4.15;;;1.20;;
27225;SDS011;14732;51.074;3.788;2022-09-30T15:37:41;3.60;;;1.00;;
27225;SDS011;14732;51.074;3.788;2022-09-30T15:40:20;3.97;;;1.08;;
27225;SDS011;14732;51.074;3.788;2022-09-30T15:43:07;3.83;;;1.10;;
27225;SDS011;14732;51.074;3.788;2022-09-30T15:45:36;3.07;;;1.10;;
27225;SDS011;14732;51.074;3.788;2022-09-30T15:50:47;1.10;;;0.98;;
27225;SDS011;14732;51.074;3.788;2022-09-30T15:56:35;1.83;;;1.00;;
27225;SDS011;14732;51.074;3.788;2022-09-30T16:01:37;2.28;;;1.50;;
27225;SDS011;14732;51.074;3.788;2022-09-30T16:09:18;6.40;;;1.10;;
27225;SDS011;14732;51.074;3.788;2022-09-30T16:11:58;2.60;;;1.10;;
27225;SDS011;14732;51.074;3.788;2022-09-30T16:14:28;3.47;;;0.90;;
27225;SDS011;14732;51.074;3.788;2022-09-30T16:16:59;3.85;;;1.20;;
27225;SDS011;14732;51.074;3.788;2022-09-30T16:19:29;4.22;;;1.10;;
27225;SDS011;14732;51.074;3.788;2022-09-30T16:21:55;3.05;;;1.30;;
27225;SDS011;14732;51.074;3.788;2022-09-30T16:26:54;3.83;;;1.00;;
27225;SDS011;14732;51.074;3.788;2022-09-30T16:29:21;2.92;;;1.15;;
27225;SDS011;14732;51.074;3.788;2022-09-30T16:31:48;3.90;;;1.58;;
27225;SDS011;14732;51.074;3.788;2022-09-30T16:36:47;3.30;;;1.13;;
27225;SDS011;14732;51.074;3.788;2022-09-30T16:39:13;2.67;;;1.00;;
27225;SDS011;14732;51.074;3.788;2022-09-30T16:41:40;2.15;;;1.02;;
27225;SDS011;14732;51.074;3.788;2022-09-30T16:44:07;1.50;;;1.10;;
27225;SDS011;14732;51.074;3.788;2022-09-30T16:46:33;4.05;;;0.90;;
27225;SDS011;14732;51.074;3.788;2022-09-30T16:48:59;3.33;;;1.20;;
27225;SDS011;14732;51.074;3.788;2022-09-30T16:51:35;4.97;;;2.20;;
27225;SDS011;14732;51.074;3.788;2022-09-30T16:54:01;3.70;;;1.60;;
27225;SDS011;14732;51.074;3.788;2022-09-30T16:56:26;2.70;;;1.20;;
27225;SDS011;14732;51.074;3.788;2022-09-30T16:58:52;2.13;;;1.13;;
27225;SDS011;14732;51.074;3.788;2022-09-30T17:01:19;3.15;;;0.95;;
27225;SDS011;14732;51.074;3.788;2022-09-30T17:03:46;2.08;;;1.10;;
27225;SDS011;14732;51.074;3.788;2022-09-30T17:06:13;3.50;;;1.20;;
27225;SDS011;14732;51.074;3.788;2022-09-30T17:08:43;3.35;;;1.23;;
27225;SDS011;14732;51.074;3.788;2022-09-30T17:11:09;2.80;;;1.50;;
27225;SDS011;14732;51.074;3.788;2022-09-30T17:13:36;4.13;;;1.45;;
27225;SDS011;14732;51.074;3.788;2022-09-30T17:16:01;2.47;;;1.40;;
27225;SDS011;14732;51.074;3.788;2022-09-30T17:18:27;2.15;;;1.10;;
27225;SDS011;14732;51.074;3.788;2022-09-30T17:20:53;2.15;;;1.30;;
27225;SDS011;14732;51.074;3.788;2022-09-30T17:23:20;1.70;;;1.10;;
27225;SDS011;14732;51.074;3.788;2022-09-30T17:25:46;4.40;;;1.10;;
27225;SDS011;14732;51.074;3.788;2022-09-30T17:28:12;3.95;;;1.10;;
27225;SDS011;14732;51.074;3.788;2022-09-30T17:30:38;3.40;;;1.20;;
27225;SDS011;14732;51.074;3.788;2022-09-30T17:33:05;6.03;;;1.60;;
27225;SDS011;14732;51.074;3.788;2022-09-30T17:35:33;2.97;;;1.50;;
27225;SDS011;14732;51.074;3.788;2022-09-30T17:38:05;5.68;;;1.60;;
27225;SDS011;14732;51.074;3.788;2022-09-30T17:40:32;6.38;;;1.50;;
27225;SDS011;14732;51.074;3.788;2022-09-30T17:43:16;2.95;;;1.50;;
27225;SDS011;14732;51.074;3.788;2022-09-30T17:45:42;3.17;;;1.65;;
27225;SDS011;14732;51.074;3.788;2022-09-30T17:48:10;1.88;;;1.20;;
27225;SDS011;14732;51.074;3.788;2022-09-30T17:50:40;2.85;;;1.52;;
27225;SDS011;14732;51.074;3.788;2022-09-30T17:53:08;2.85;;;1.63;;
27225;SDS011;14732;51.074;3.788;2022-09-30T17:55:37;3.25;;;1.83;;
27225;SDS011;14732;51.074;3.788;2022-09-30T17:58:03;42.85;;;29.63;;
27225;SDS011;14732;51.074;3.788;2022-09-30T18:00:31;3.78;;;2.15;;
27225;SDS011;14732;51.074;3.788;2022-09-30T18:02:57;2.13;;;1.80;;
27225;SDS011;14732;51.074;3.788;2022-09-30T18:05:23;7.53;;;1.80;;
27225;SDS011;14732;51.074;3.788;2022-09-30T18:07:49;4.25;;;2.60;;
27225;SDS011;14732;51.074;3.788;2022-09-30T18:10:16;6.82;;;4.18;;
27225;SDS011;14732;51.074;3.788;2022-09-30T18:12:41;4.93;;;2.50;;
27225;SDS011;14732;51.074;3.788;2022-09-30T18:15:07;28.83;;;17.63;;
27225;SDS011;14732;51.074;3.788;2022-09-30T18:17:34;12.43;;;9.13;;
27225;SDS011;14732;51.074;3.788;2022-09-30T18:20:00;8.32;;;5.80;;
27225;SDS011;14732;51.074;3.788;2022-09-30T18:22:25;3.28;;;2.50;;
27225;SDS011;14732;51.074;3.788;2022-09-30T18:24:51;8.88;;;4.22;;
27225;SDS011;14732;51.074;3.788;2022-09-30T18:27:35;12.95;;;10.90;;
27225;SDS011;14732;51.074;3.788;2022-09-30T18:30:02;5.35;;;3.33;;